sensor_id;sensor_type;location;lat;lon;timestamp;pressure;altitude;pressure_sealevel;temperature
43292;BMP280;28754;47.700;7.924;2022-07-15T00:02:37;91693.38;;;23.96
43292;BMP280;28754;47.700;7.924;2022-07-15T00:05:25;91704.09;;;23.91
43292;BMP280;28754;47.700;7.924;2022-07-15T00:08:12;91698.31;;;23.86
43292;BMP280;28754;47.700;7.924;2022-07-15T00:10:59;91693.75;;;23.83
43292;BMP280;28754;47.700;7.924;2022-07-15T00:13:45;91695.03;;;23.77
43292;BMP280;28754;47.700;7.924;2022-07-15T00:16:32;91697.13;;;23.72
43292;BMP280;28754;47.700;7.924;2022-07-15T00:19:19;91685.78;;;23.68
43292;BMP280;28754;47.700;7.924;2022-07-15T00:22:06;91693.97;;;23.66
43292;BMP280;28754;47.700;7.924;2022-07-15T00:24:53;91702.03;;;23.61
43292;BMP280;28754;47.700;7.924;2022-07-15T00:28:00;91696.31;;;23.47
43292;BMP280;28754;47.700;7.924;2022-07-15T00:30:49;91699.81;;;23.40
43292;BMP280;28754;47.700;7.924;2022-07-15T00:33:36;91703.81;;;23.37
43292;BMP280;28754;47.700;7.924;2022-07-15T00:36:23;91702.19;;;23.33
43292;BMP280;28754;47.700;7.924;2022-07-15T00:39:10;91700.88;;;23.27
43292;BMP280;28754;47.700;7.924;2022-07-15T00:41:57;91701.28;;;23.17
43292;BMP280;28754;47.700;7.924;2022-07-15T00:44:43;91705.84;;;23.08
43292;BMP280;28754;47.700;7.924;2022-07-15T00:47:30;91702.47;;;23.08
43292;BMP280;28754;47.700;7.924;2022-07-15T00:50:19;91708.47;;;23.08
43292;BMP280;28754;47.700;7.924;2022-07-15T00:53:15;91700.63;;;23.08
43292;BMP280;28754;47.700;7.924;2022-07-15T00:56:04;91698.00;;;23.08
43292;BMP280;28754;47.700;7.924;2022-07-15T00:58:53;91700.63;;;23.08
43292;BMP280;28754;47.700;7.924;2022-07-15T01:01:42;91697.25;;;23.08
43292;BMP280;28754;47.700;7.924;2022-07-15T01:04:30;91697.13;;;23.04
43292;BMP280;28754;47.700;7.924;2022-07-15T01:07:19;91706.03;;;23.03
43292;BMP280;28754;47.700;7.924;2022-07-15T01:10:07;91708.22;;;23.01
43292;BMP280;28754;47.700;7.924;2022-07-15T01:12:54;91709.63;;;22.99
43292;BMP280;28754;47.700;7.924;2022-07-15T01:15:48;91714.75;;;22.95
43292;BMP280;28754;47.700;7.924;2022-07-15T01:18:36;91711.25;;;22.91
43292;BMP280;28754;47.700;7.924;2022-07-15T01:21:23;91713.09;;;22.91
43292;BMP280;28754;47.700;7.924;2022-07-15T01:24:12;91706.22;;;22.86
43292;BMP280;28754;47.700;7.924;2022-07-15T01:27:07;91708.09;;;22.77
43292;BMP280;28754;47.700;7.924;2022-07-15T01:29:53;91711.28;;;22.71
43292;BMP280;28754;47.700;7.924;2022-07-15T01:32:43;91707.44;;;22.69
43292;BMP280;28754;47.700;7.924;2022-07-15T01:35:30;91707.63;;;22.64
43292;BMP280;28754;47.700;7.924;2022-07-15T01:38:17;91711.53;;;22.58
43292;BMP280;28754;47.700;7.924;2022-07-15T01:41:04;91700.84;;;22.51
43292;BMP280;28754;47.700;7.924;2022-07-15T01:43:51;91704.72;;;22.45
43292;BMP280;28754;47.700;7.924;2022-07-15T01:46:38;91706.88;;;22.43
43292;BMP280;28754;47.700;7.924;2022-07-15T01:49:25;91710.91;;;22.40
43292;BMP280;28754;47.700;7.924;2022-07-15T01:52:26;91721.22;;;22.37
43292;BMP280;28754;47.700;7.924;2022-07-15T01:55:12;91703.28;;;22.36
43292;BMP280;28754;47.700;7.924;2022-07-15T01:58:00;91710.34;;;22.35
43292;BMP280;28754;47.700;7.924;2022-07-15T02:00:47;91711.41;;;22.34
43292;BMP280;28754;47.700;7.924;2022-07-15T02:03:35;91708.69;;;22.31
43292;BMP280;28754;47.700;7.924;2022-07-15T02:06:22;91706.69;;;22.28
43292;BMP280;28754;47.700;7.924;2022-07-15T02:09:09;91714.41;;;22.24
43292;BMP280;28754;47.700;7.924;2022-07-15T02:12:01;91714.59;;;22.19
43292;BMP280;28754;47.700;7.924;2022-07-15T02:14:54;91711.88;;;22.16
43292;BMP280;28754;47.700;7.924;2022-07-15T02:17:43;91708.81;;;22.14
43292;BMP280;28754;47.700;7.924;2022-07-15T02:20:31;91704.97;;;22.11
43292;BMP280;28754;47.700;7.924;2022-07-15T02:23:18;91715.25;;;22.08
43292;BMP280;28754;47.700;7.924;2022-07-15T02:26:05;91709.91;;;22.04
43292;BMP280;28754;47.700;7.924;2022-07-15T02:28:52;91706.09;;;22.02
43292;BMP280;28754;47.700;7.924;2022-07-15T02:31:38;91705.97;;;21.99
43292;BMP280;28754;47.700;7.924;2022-07-15T02:34:25;91709.66;;;21.98
43292;BMP280;28754;47.700;7.924;2022-07-15T02:37:12;91711.34;;;21.94
43292;BMP280;28754;47.700;7.924;2022-07-15T02:39:59;91704.94;;;21.91
43292;BMP280;28754;47.700;7.924;2022-07-15T02:42:57;91703.44;;;21.90
43292;BMP280;28754;47.700;7.924;2022-07-15T02:45:44;91709.59;;;21.86
43292;BMP280;28754;47.700;7.924;2022-07-15T02:48:33;91701.47;;;21.79
43292;BMP280;28754;47.700;7.924;2022-07-15T02:51:22;91707.13;;;21.61
43292;BMP280;28754;47.700;7.924;2022-07-15T02:54:09;91712.88;;;21.37
43292;BMP280;28754;47.700;7.924;2022-07-15T02:56:59;91708.94;;;21.15
43292;BMP280;28754;47.700;7.924;2022-07-15T02:59:47;91704.44;;;20.95
43292;BMP280;28754;47.700;7.924;2022-07-15T03:02:34;91714.56;;;20.80
43292;BMP280;28754;47.700;7.924;2022-07-15T03:05:23;91717.34;;;20.75
43292;BMP280;28754;47.700;7.924;2022-07-15T03:08:11;91720.88;;;20.70
43292;BMP280;28754;47.700;7.924;2022-07-15T03:11:00;91711.06;;;20.59
43292;BMP280;28754;47.700;7.924;2022-07-15T03:13:47;91710.44;;;20.54
43292;BMP280;28754;47.700;7.924;2022-07-15T03:16:34;91708.91;;;20.44
43292;BMP280;28754;47.700;7.924;2022-07-15T03:19:21;91716.13;;;20.39
43292;BMP280;28754;47.700;7.924;2022-07-15T03:22:08;91716.28;;;20.34
43292;BMP280;28754;47.700;7.924;2022-07-15T03:24:57;91719.94;;;20.25
43292;BMP280;28754;47.700;7.924;2022-07-15T03:27:43;91717.03;;;20.09
43292;BMP280;28754;47.700;7.924;2022-07-15T03:30:32;91721.63;;;19.96
43292;BMP280;28754;47.700;7.924;2022-07-15T03:33:19;91717.94;;;19.88
43292;BMP280;28754;47.700;7.924;2022-07-15T03:36:06;91721.16;;;19.85
43292;BMP280;28754;47.700;7.924;2022-07-15T03:38:54;91717.63;;;19.81
43292;BMP280;28754;47.700;7.924;2022-07-15T03:41:40;91714.97;;;19.73
43292;BMP280;28754;47.700;7.924;2022-07-15T03:44:27;91718.78;;;19.75
43292;BMP280;28754;47.700;7.924;2022-07-15T03:47:14;91719.13;;;19.74
43292;BMP280;28754;47.700;7.924;2022-07-15T03:50:01;91721.72;;;19.74
43292;BMP280;28754;47.700;7.924;2022-07-15T03:52:47;91718.47;;;19.68
43292;BMP280;28754;47.700;7.924;2022-07-15T03:55:34;91713.72;;;19.62
43292;BMP280;28754;47.700;7.924;2022-07-15T03:58:24;91723.34;;;19.61
43292;BMP280;28754;47.700;7.924;2022-07-15T04:01:11;91719.22;;;19.60
43292;BMP280;28754;47.700;7.924;2022-07-15T04:03:57;91718.63;;;19.63
43292;BMP280;28754;47.700;7.924;2022-07-15T04:06:44;91725.50;;;19.60
43292;BMP280;28754;47.700;7.924;2022-07-15T04:09:31;91718.75;;;19.59
43292;BMP280;28754;47.700;7.924;2022-07-15T04:12:18;91715.25;;;19.63
43292;BMP280;28754;47.700;7.924;2022-07-15T04:15:05;91718.47;;;19.68
43292;BMP280;28754;47.700;7.924;2022-07-15T04:17:52;91720.59;;;19.66
43292;BMP280;28754;47.700;7.924;2022-07-15T04:20:41;91733.28;;;19.60
43292;BMP280;28754;47.700;7.924;2022-07-15T04:23:29;91729.09;;;19.50
43292;BMP280;28754;47.700;7.924;2022-07-15T04:26:16;91722.72;;;19.56
43292;BMP280;28754;47.700;7.924;2022-07-15T04:29:02;91721.97;;;19.64
43292;BMP280;28754;47.700;7.924;2022-07-15T04:31:49;91721.78;;;19.52
43292;BMP280;28754;47.700;7.924;2022-07-15T04:34:43;91710.59;;;19.43
43292;BMP280;28754;47.700;7.924;2022-07-15T04:37:30;91715.47;;;19.36
43292;BMP280;28754;47.700;7.924;2022-07-15T04:40:18;91712.41;;;19.34
43292;BMP280;28754;47.700;7.924;2022-07-15T04:43:06;91713.03;;;19.31
43292;BMP280;28754;47.700;7.924;2022-07-15T04:45:53;91722.81;;;19.34
43292;BMP280;28754;47.700;7.924;2022-07-15T04:48:41;91717.31;;;19.36
43292;BMP280;28754;47.700;7.924;2022-07-15T04:51:50;91720.25;;;19.43
43292;BMP280;28754;47.700;7.924;2022-07-15T04:54:37;91718.72;;;19.50
43292;BMP280;28754;47.700;7.924;2022-07-15T04:57:24;91715.38;;;19.58
43292;BMP280;28754;47.700;7.924;2022-07-15T05:00:11;91717.84;;;19.63
43292;BMP280;28754;47.700;7.924;2022-07-15T05:02:59;91723.38;;;19.70
43292;BMP280;28754;47.700;7.924;2022-07-15T05:05:48;91721.72;;;19.82
43292;BMP280;28754;47.700;7.924;2022-07-15T05:08:38;91720.69;;;19.92
43292;BMP280;28754;47.700;7.924;2022-07-15T05:11:25;91726.81;;;19.96
43292;BMP280;28754;47.700;7.924;2022-07-15T05:14:13;91727.88;;;19.95
43292;BMP280;28754;47.700;7.924;2022-07-15T05:17:00;91733.97;;;19.90
43292;BMP280;28754;47.700;7.924;2022-07-15T05:19:48;91731.56;;;19.94
43292;BMP280;28754;47.700;7.924;2022-07-15T05:22:40;91731.56;;;20.10
43292;BMP280;28754;47.700;7.924;2022-07-15T05:25:27;91731.59;;;20.19
43292;BMP280;28754;47.700;7.924;2022-07-15T05:28:13;91731.88;;;20.26
43292;BMP280;28754;47.700;7.924;2022-07-15T05:31:02;91728.84;;;20.32
43292;BMP280;28754;47.700;7.924;2022-07-15T05:33:50;91727.59;;;20.38
43292;BMP280;28754;47.700;7.924;2022-07-15T05:36:39;91727.91;;;20.45
43292;BMP280;28754;47.700;7.924;2022-07-15T05:39:27;91731.84;;;20.51
43292;BMP280;28754;47.700;7.924;2022-07-15T05:42:14;91736.00;;;20.52
43292;BMP280;28754;47.700;7.924;2022-07-15T05:45:01;91736.47;;;20.54
43292;BMP280;28754;47.700;7.924;2022-07-15T05:47:49;91740.47;;;20.60
43292;BMP280;28754;47.700;7.924;2022-07-15T05:50:39;91733.13;;;20.62
43292;BMP280;28754;47.700;7.924;2022-07-15T05:53:28;91741.22;;;20.68
43292;BMP280;28754;47.700;7.924;2022-07-15T05:56:15;91737.84;;;20.76
43292;BMP280;28754;47.700;7.924;2022-07-15T05:59:02;91734.16;;;20.86
43292;BMP280;28754;47.700;7.924;2022-07-15T06:01:54;91736.00;;;20.94
43292;BMP280;28754;47.700;7.924;2022-07-15T06:04:42;91731.66;;;20.98
43292;BMP280;28754;47.700;7.924;2022-07-15T06:07:31;91741.00;;;21.07
43292;BMP280;28754;47.700;7.924;2022-07-15T06:10:18;91742.38;;;21.13
43292;BMP280;28754;47.700;7.924;2022-07-15T06:13:05;91735.00;;;21.15
43292;BMP280;28754;47.700;7.924;2022-07-15T06:15:52;91736.09;;;21.14
43292;BMP280;28754;47.700;7.924;2022-07-15T06:18:43;91738.38;;;21.15
43292;BMP280;28754;47.700;7.924;2022-07-15T06:21:30;91743.56;;;21.24
43292;BMP280;28754;47.700;7.924;2022-07-15T06:24:17;91741.69;;;21.33
43292;BMP280;28754;47.700;7.924;2022-07-15T06:27:04;91747.22;;;21.31
43292;BMP280;28754;47.700;7.924;2022-07-15T06:29:51;91745.38;;;21.32
43292;BMP280;28754;47.700;7.924;2022-07-15T06:32:40;91746.91;;;21.33
43292;BMP280;28754;47.700;7.924;2022-07-15T06:35:27;91746.13;;;21.40
43292;BMP280;28754;47.700;7.924;2022-07-15T06:38:14;91751.63;;;21.47
43292;BMP280;28754;47.700;7.924;2022-07-15T06:41:02;91752.47;;;21.60
43292;BMP280;28754;47.700;7.924;2022-07-15T06:43:49;91744.50;;;21.65
43292;BMP280;28754;47.700;7.924;2022-07-15T06:46:46;91738.38;;;21.61
43292;BMP280;28754;47.700;7.924;2022-07-15T06:49:34;91744.97;;;21.67
43292;BMP280;28754;47.700;7.924;2022-07-15T06:52:20;91745.06;;;21.70
43292;BMP280;28754;47.700;7.924;2022-07-15T06:55:08;91744.44;;;21.81
43292;BMP280;28754;47.700;7.924;2022-07-15T06:57:55;91744.34;;;21.90
43292;BMP280;28754;47.700;7.924;2022-07-15T07:00:41;91750.31;;;21.99
43292;BMP280;28754;47.700;7.924;2022-07-15T07:03:28;91742.59;;;22.02
43292;BMP280;28754;47.700;7.924;2022-07-15T07:06:17;91753.28;;;22.09
43292;BMP280;28754;47.700;7.924;2022-07-15T07:09:04;91754.06;;;22.18
43292;BMP280;28754;47.700;7.924;2022-07-15T07:11:50;91755.88;;;22.17
43292;BMP280;28754;47.700;7.924;2022-07-15T07:14:37;91762.00;;;22.21
43292;BMP280;28754;47.700;7.924;2022-07-15T07:17:24;91757.03;;;22.28
43292;BMP280;28754;47.700;7.924;2022-07-15T07:20:11;91747.50;;;22.32
43292;BMP280;28754;47.700;7.924;2022-07-15T07:22:57;91753.34;;;22.29
43292;BMP280;28754;47.700;7.924;2022-07-15T07:25:44;91758.31;;;22.22
43292;BMP280;28754;47.700;7.924;2022-07-15T07:28:31;91755.88;;;22.17
43292;BMP280;28754;47.700;7.924;2022-07-15T07:31:18;91760.53;;;22.12
43292;BMP280;28754;47.700;7.924;2022-07-15T07:34:11;91764.50;;;22.09
43292;BMP280;28754;47.700;7.924;2022-07-15T07:36:59;91756.69;;;22.09
43292;BMP280;28754;47.700;7.924;2022-07-15T07:39:46;91759.75;;;22.11
43292;BMP280;28754;47.700;7.924;2022-07-15T07:42:33;91760.81;;;22.10
43292;BMP280;28754;47.700;7.924;2022-07-15T07:45:22;91764.81;;;22.08
43292;BMP280;28754;47.700;7.924;2022-07-15T07:48:10;91763.16;;;22.03
43292;BMP280;28754;47.700;7.924;2022-07-15T07:50:58;91754.69;;;22.06
43292;BMP280;28754;47.700;7.924;2022-07-15T07:53:45;91760.22;;;22.13
43292;BMP280;28754;47.700;7.924;2022-07-15T07:56:33;91753.56;;;22.24
43292;BMP280;28754;47.700;7.924;2022-07-15T07:59:19;91760.72;;;22.27
43292;BMP280;28754;47.700;7.924;2022-07-15T08:02:06;91759.97;;;22.27
43292;BMP280;28754;47.700;7.924;2022-07-15T08:04:53;91764.09;;;22.28
43292;BMP280;28754;47.700;7.924;2022-07-15T08:07:40;91758.56;;;22.29
43292;BMP280;28754;47.700;7.924;2022-07-15T08:10:27;91754.88;;;22.30
43292;BMP280;28754;47.700;7.924;2022-07-15T08:13:16;91758.06;;;22.36
43292;BMP280;28754;47.700;7.924;2022-07-15T08:16:03;91767.31;;;22.33
43292;BMP280;28754;47.700;7.924;2022-07-15T08:18:50;91763.84;;;22.41
43292;BMP280;28754;47.700;7.924;2022-07-15T08:21:37;91758.22;;;22.39
43292;BMP280;28754;47.700;7.924;2022-07-15T08:24:23;91770.59;;;22.42
43292;BMP280;28754;47.700;7.924;2022-07-15T08:27:10;91768.56;;;22.47
43292;BMP280;28754;47.700;7.924;2022-07-15T08:29:57;91776.53;;;22.51
43292;BMP280;28754;47.700;7.924;2022-07-15T08:32:44;91771.00;;;22.52
43292;BMP280;28754;47.700;7.924;2022-07-15T08:35:31;91780.03;;;22.55
43292;BMP280;28754;47.700;7.924;2022-07-15T08:38:17;91764.38;;;22.55
43292;BMP280;28754;47.700;7.924;2022-07-15T08:41:04;91780.72;;;22.64
43292;BMP280;28754;47.700;7.924;2022-07-15T08:43:51;91778.56;;;22.66
43292;BMP280;28754;47.700;7.924;2022-07-15T08:46:45;91774.34;;;22.73
43292;BMP280;28754;47.700;7.924;2022-07-15T08:49:33;91780.78;;;22.75
43292;BMP280;28754;47.700;7.924;2022-07-15T08:52:20;91772.00;;;22.80
43292;BMP280;28754;47.700;7.924;2022-07-15T08:55:08;91775.47;;;22.84
43292;BMP280;28754;47.700;7.924;2022-07-15T08:57:55;91774.13;;;22.86
43292;BMP280;28754;47.700;7.924;2022-07-15T09:00:42;91775.34;;;22.89
43292;BMP280;28754;47.700;7.924;2022-07-15T09:03:29;91767.81;;;22.87
43292;BMP280;28754;47.700;7.924;2022-07-15T09:06:49;91779.59;;;22.93
43292;BMP280;28754;47.700;7.924;2022-07-15T09:09:39;91786.47;;;22.98
43292;BMP280;28754;47.700;7.924;2022-07-15T09:12:26;91790.19;;;23.08
43292;BMP280;28754;47.700;7.924;2022-07-15T09:15:33;91784.28;;;23.32
43292;BMP280;28754;47.700;7.924;2022-07-15T09:18:25;91787.56;;;23.41
43292;BMP280;28754;47.700;7.924;2022-07-15T09:21:27;91779.28;;;23.39
43292;BMP280;28754;47.700;7.924;2022-07-15T09:24:18;91774.53;;;23.52
43292;BMP280;28754;47.700;7.924;2022-07-15T09:27:30;91785.69;;;23.61
43292;BMP280;28754;47.700;7.924;2022-07-15T09:30:27;91785.16;;;23.68
43292;BMP280;28754;47.700;7.924;2022-07-15T09:33:35;91777.09;;;23.73
43292;BMP280;28754;47.700;7.924;2022-07-15T09:36:29;91788.09;;;23.66
43292;BMP280;28754;47.700;7.924;2022-07-15T09:39:17;91781.13;;;23.70
43292;BMP280;28754;47.700;7.924;2022-07-15T09:42:08;91775.44;;;23.68
43292;BMP280;28754;47.700;7.924;2022-07-15T09:44:55;91783.28;;;23.68
43292;BMP280;28754;47.700;7.924;2022-07-15T09:47:41;91780.25;;;23.66
43292;BMP280;28754;47.700;7.924;2022-07-15T09:50:36;91784.72;;;23.77
43292;BMP280;28754;47.700;7.924;2022-07-15T09:53:24;91779.59;;;23.93
43292;BMP280;28754;47.700;7.924;2022-07-15T09:56:17;91780.28;;;24.02
43292;BMP280;28754;47.700;7.924;2022-07-15T09:59:13;91776.00;;;24.09
43292;BMP280;28754;47.700;7.924;2022-07-15T10:02:04;91775.25;;;24.09
43292;BMP280;28754;47.700;7.924;2022-07-15T10:04:51;91766.41;;;24.13
43292;BMP280;28754;47.700;7.924;2022-07-15T10:07:39;91773.72;;;24.08
43292;BMP280;28754;47.700;7.924;2022-07-15T10:10:28;91756.03;;;24.16
43292;BMP280;28754;47.700;7.924;2022-07-15T10:13:44;91766.94;;;24.18
43292;BMP280;28754;47.700;7.924;2022-07-15T10:17:06;91760.63;;;24.19
43292;BMP280;28754;47.700;7.924;2022-07-15T10:20:27;91755.94;;;24.13
43292;BMP280;28754;47.700;7.924;2022-07-15T10:27:11;91775.22;;;24.20
43292;BMP280;28754;47.700;7.924;2022-07-15T10:30:07;91756.28;;;24.23
43292;BMP280;28754;47.700;7.924;2022-07-15T10:35:52;91759.56;;;24.32
43292;BMP280;28754;47.700;7.924;2022-07-15T10:38:39;91761.97;;;24.25
43292;BMP280;28754;47.700;7.924;2022-07-15T10:44:35;91764.78;;;24.09
43292;BMP280;28754;47.700;7.924;2022-07-15T10:47:23;91759.88;;;24.19
43292;BMP280;28754;47.700;7.924;2022-07-15T10:50:39;91769.03;;;24.25
43292;BMP280;28754;47.700;7.924;2022-07-15T10:53:26;91757.13;;;24.39
43292;BMP280;28754;47.700;7.924;2022-07-15T10:56:35;91748.91;;;24.52
43292;BMP280;28754;47.700;7.924;2022-07-15T10:59:24;91754.22;;;24.68
43292;BMP280;28754;47.700;7.924;2022-07-15T11:02:14;91751.13;;;24.78
43292;BMP280;28754;47.700;7.924;2022-07-15T11:05:19;91743.91;;;24.86
43292;BMP280;28754;47.700;7.924;2022-07-15T11:20:20;91737.25;;;24.89
43292;BMP280;28754;47.700;7.924;2022-07-15T11:23:07;91733.34;;;24.83
43292;BMP280;28754;47.700;7.924;2022-07-15T11:25:57;91730.88;;;24.75
43292;BMP280;28754;47.700;7.924;2022-07-15T11:28:55;91735.88;;;24.68
43292;BMP280;28754;47.700;7.924;2022-07-15T11:31:42;91742.66;;;24.69
43292;BMP280;28754;47.700;7.924;2022-07-15T11:34:42;91733.38;;;24.71
43292;BMP280;28754;47.700;7.924;2022-07-15T11:37:35;91732.38;;;24.76
43292;BMP280;28754;47.700;7.924;2022-07-15T11:40:22;91737.47;;;24.84
43292;BMP280;28754;47.700;7.924;2022-07-15T11:43:27;91741.63;;;24.85
43292;BMP280;28754;47.700;7.924;2022-07-15T11:46:32;91746.53;;;25.14
43292;BMP280;28754;47.700;7.924;2022-07-15T11:49:32;91733.78;;;25.27
43292;BMP280;28754;47.700;7.924;2022-07-15T11:52:26;91733.31;;;25.37
43292;BMP280;28754;47.700;7.924;2022-07-15T11:55:12;91732.31;;;25.42
43292;BMP280;28754;47.700;7.924;2022-07-15T11:57:59;91740.06;;;25.38
43292;BMP280;28754;47.700;7.924;2022-07-15T12:00:49;91736.19;;;25.32
43292;BMP280;28754;47.700;7.924;2022-07-15T12:03:48;91731.44;;;25.38
43292;BMP280;28754;47.700;7.924;2022-07-15T12:06:34;91727.94;;;25.61
43292;BMP280;28754;47.700;7.924;2022-07-15T12:09:21;91730.38;;;25.85
43292;BMP280;28754;47.700;7.924;2022-07-15T12:12:09;91738.75;;;26.05
43292;BMP280;28754;47.700;7.924;2022-07-15T12:14:55;91737.78;;;26.13
43292;BMP280;28754;47.700;7.924;2022-07-15T12:17:42;91742.66;;;26.11
43292;BMP280;28754;47.700;7.924;2022-07-15T12:20:29;91739.34;;;25.99
43292;BMP280;28754;47.700;7.924;2022-07-15T12:23:17;91734.63;;;25.89
43292;BMP280;28754;47.700;7.924;2022-07-15T12:26:09;91725.66;;;25.90
43292;BMP280;28754;47.700;7.924;2022-07-15T12:29:00;91729.53;;;25.81
43292;BMP280;28754;47.700;7.924;2022-07-15T12:32:02;91725.75;;;25.78
43292;BMP280;28754;47.700;7.924;2022-07-15T12:34:53;91724.66;;;25.79
43292;BMP280;28754;47.700;7.924;2022-07-15T12:37:51;91721.91;;;25.91
43292;BMP280;28754;47.700;7.924;2022-07-15T12:40:38;91727.56;;;26.08
43292;BMP280;28754;47.700;7.924;2022-07-15T12:43:57;91732.06;;;26.23
43292;BMP280;28754;47.700;7.924;2022-07-15T12:46:54;91723.38;;;26.38
43292;BMP280;28754;47.700;7.924;2022-07-15T12:49:51;91719.88;;;26.49
43292;BMP280;28754;47.700;7.924;2022-07-15T12:52:39;91720.25;;;26.48
43292;BMP280;28754;47.700;7.924;2022-07-15T12:55:48;91719.31;;;26.40
43292;BMP280;28754;47.700;7.924;2022-07-15T12:58:35;91734.41;;;26.43
43292;BMP280;28754;47.700;7.924;2022-07-15T13:01:24;91726.66;;;26.50
43292;BMP280;28754;47.700;7.924;2022-07-15T13:04:11;91720.00;;;26.56
43292;BMP280;28754;47.700;7.924;2022-07-15T13:06:57;91732.81;;;26.57
43292;BMP280;28754;47.700;7.924;2022-07-15T13:09:45;91732.13;;;26.60
43292;BMP280;28754;47.700;7.924;2022-07-15T13:12:32;91734.16;;;26.67
43292;BMP280;28754;47.700;7.924;2022-07-15T13:15:19;91723.03;;;26.73
43292;BMP280;28754;47.700;7.924;2022-07-15T13:18:06;91716.56;;;26.71
43292;BMP280;28754;47.700;7.924;2022-07-15T13:20:54;91717.41;;;26.75
43292;BMP280;28754;47.700;7.924;2022-07-15T13:23:41;91728.78;;;26.79
43292;BMP280;28754;47.700;7.924;2022-07-15T13:26:28;91719.91;;;26.68
43292;BMP280;28754;47.700;7.924;2022-07-15T13:29:14;91724.03;;;26.50
43292;BMP280;28754;47.700;7.924;2022-07-15T13:32:01;91721.94;;;26.40
43292;BMP280;28754;47.700;7.924;2022-07-15T13:34:48;91724.56;;;26.40
43292;BMP280;28754;47.700;7.924;2022-07-15T13:37:35;91722.78;;;26.44
43292;BMP280;28754;47.700;7.924;2022-07-15T13:40:22;91715.75;;;26.67
43292;BMP280;28754;47.700;7.924;2022-07-15T13:43:09;91717.56;;;27.19
43292;BMP280;28754;47.700;7.924;2022-07-15T13:45:56;91710.06;;;27.62
43292;BMP280;28754;47.700;7.924;2022-07-15T13:48:42;91710.53;;;27.90
43292;BMP280;28754;47.700;7.924;2022-07-15T13:51:29;91707.31;;;27.77
43292;BMP280;28754;47.700;7.924;2022-07-15T13:54:16;91700.31;;;27.62
43292;BMP280;28754;47.700;7.924;2022-07-15T13:57:03;91700.25;;;27.59
43292;BMP280;28754;47.700;7.924;2022-07-15T13:59:49;91692.22;;;27.52
43292;BMP280;28754;47.700;7.924;2022-07-15T14:02:36;91706.44;;;27.48
43292;BMP280;28754;47.700;7.924;2022-07-15T14:05:24;91705.47;;;27.37
43292;BMP280;28754;47.700;7.924;2022-07-15T14:08:11;91699.75;;;27.31
43292;BMP280;28754;47.700;7.924;2022-07-15T14:10:57;91712.06;;;27.27
43292;BMP280;28754;47.700;7.924;2022-07-15T14:13:44;91711.31;;;27.27
43292;BMP280;28754;47.700;7.924;2022-07-15T14:16:31;91697.88;;;27.32
43292;BMP280;28754;47.700;7.924;2022-07-15T14:19:18;91715.53;;;27.31
43292;BMP280;28754;47.700;7.924;2022-07-15T14:22:05;91705.84;;;27.35
43292;BMP280;28754;47.700;7.924;2022-07-15T14:25:12;91705.91;;;27.39
43292;BMP280;28754;47.700;7.924;2022-07-15T14:28:02;91699.13;;;27.38
43292;BMP280;28754;47.700;7.924;2022-07-15T14:30:51;91701.75;;;27.38
43292;BMP280;28754;47.700;7.924;2022-07-15T14:33:40;91709.28;;;27.39
43292;BMP280;28754;47.700;7.924;2022-07-15T14:36:27;91714.56;;;27.39
43292;BMP280;28754;47.700;7.924;2022-07-15T14:39:14;91714.22;;;27.41
43292;BMP280;28754;47.700;7.924;2022-07-15T14:42:01;91705.69;;;27.47
43292;BMP280;28754;47.700;7.924;2022-07-15T14:44:47;91707.97;;;27.49
43292;BMP280;28754;47.700;7.924;2022-07-15T14:47:34;91717.38;;;27.50
43292;BMP280;28754;47.700;7.924;2022-07-15T14:50:21;91710.25;;;27.50
43292;BMP280;28754;47.700;7.924;2022-07-15T14:53:08;91712.47;;;27.48
43292;BMP280;28754;47.700;7.924;2022-07-15T14:55:55;91708.31;;;27.47
43292;BMP280;28754;47.700;7.924;2022-07-15T14:58:56;91705.28;;;27.45
43292;BMP280;28754;47.700;7.924;2022-07-15T15:01:44;91709.38;;;27.43
43292;BMP280;28754;47.700;7.924;2022-07-15T15:04:30;91709.28;;;27.39
43292;BMP280;28754;47.700;7.924;2022-07-15T15:07:17;91713.88;;;27.42
43292;BMP280;28754;47.700;7.924;2022-07-15T15:10:04;91706.31;;;27.41
43292;BMP280;28754;47.700;7.924;2022-07-15T15:12:51;91710.72;;;27.37
43292;BMP280;28754;47.700;7.924;2022-07-15T15:15:37;91717.13;;;27.36
43292;BMP280;28754;47.700;7.924;2022-07-15T15:18:24;91707.69;;;27.35
43292;BMP280;28754;47.700;7.924;2022-07-15T15:21:11;91709.78;;;27.26
43292;BMP280;28754;47.700;7.924;2022-07-15T15:23:58;91714.22;;;27.22
43292;BMP280;28754;47.700;7.924;2022-07-15T15:26:45;91717.25;;;27.24
43292;BMP280;28754;47.700;7.924;2022-07-15T15:29:32;91720.72;;;27.28
43292;BMP280;28754;47.700;7.924;2022-07-15T15:32:22;91722.50;;;27.24
43292;BMP280;28754;47.700;7.924;2022-07-15T15:35:09;91724.72;;;27.22
43292;BMP280;28754;47.700;7.924;2022-07-15T15:37:56;91719.47;;;27.22
43292;BMP280;28754;47.700;7.924;2022-07-15T15:40:42;91711.97;;;27.21
43292;BMP280;28754;47.700;7.924;2022-07-15T15:43:29;91713.75;;;27.17
43292;BMP280;28754;47.700;7.924;2022-07-15T15:46:16;91719.22;;;27.08
43292;BMP280;28754;47.700;7.924;2022-07-15T15:49:03;91707.97;;;27.08
43292;BMP280;28754;47.700;7.924;2022-07-15T15:51:49;91708.63;;;27.05
43292;BMP280;28754;47.700;7.924;2022-07-15T15:54:36;91712.81;;;27.06
43292;BMP280;28754;47.700;7.924;2022-07-15T15:57:23;91716.19;;;27.06
43292;BMP280;28754;47.700;7.924;2022-07-15T16:00:11;91715.47;;;27.09
43292;BMP280;28754;47.700;7.924;2022-07-15T16:02:59;91708.78;;;27.12
43292;BMP280;28754;47.700;7.924;2022-07-15T16:05:45;91707.25;;;27.11
43292;BMP280;28754;47.700;7.924;2022-07-15T16:08:32;91703.13;;;27.10
43292;BMP280;28754;47.700;7.924;2022-07-15T16:11:20;91698.53;;;27.07
43292;BMP280;28754;47.700;7.924;2022-07-15T16:14:07;91702.97;;;27.03
43292;BMP280;28754;47.700;7.924;2022-07-15T16:16:54;91696.81;;;26.95
43292;BMP280;28754;47.700;7.924;2022-07-15T16:19:42;91697.13;;;26.91
43292;BMP280;28754;47.700;7.924;2022-07-15T16:22:29;91690.63;;;26.85
43292;BMP280;28754;47.700;7.924;2022-07-15T16:25:37;91695.72;;;26.78
43292;BMP280;28754;47.700;7.924;2022-07-15T16:28:24;91700.13;;;26.74
43292;BMP280;28754;47.700;7.924;2022-07-15T16:31:11;91690.56;;;26.66
43292;BMP280;28754;47.700;7.924;2022-07-15T16:33:57;91698.25;;;26.56
43292;BMP280;28754;47.700;7.924;2022-07-15T16:36:44;91706.41;;;26.51
43292;BMP280;28754;47.700;7.924;2022-07-15T16:39:31;91699.97;;;26.48